sensor_id;sensor_type;location;lat;lon;timestamp;temperature;humidity
5792;DHT22;2922;53.482;10.006;2023-03-01T00:01:26;-0.90;99.90
5792;DHT22;2922;53.482;10.006;2023-03-01T00:03:52;-0.90;99.90
5792;DHT22;2922;53.482;10.006;2023-03-01T00:06:18;-0.90;99.90
5792;DHT22;2922;53.482;10.006;2023-03-01T00:08:45;-0.90;99.90
5792;DHT22;2922;53.482;10.006;2023-03-01T00:11:14;-1.00;99.90
5792;DHT22;2922;53.482;10.006;2023-03-01T00:13:40;-1.00;99.90
5792;DHT22;2922;53.482;10.006;2023-03-01T00:16:09;-1.00;99.90
5792;DHT22;2922;53.482;10.006;2023-03-01T00:18:35;-1.00;99.90
5792;DHT22;2922;53.482;10.006;2023-03-01T00:21:01;-1.00;99.90
5792;DHT22;2922;53.482;10.006;2023-03-01T00:23:27;-1.00;99.90
5792;DHT22;2922;53.482;10.006;2023-03-01T00:25:53;-1.00;99.90
5792;DHT22;2922;53.482;10.006;2023-03-01T00:28:19;-1.00;99.90
5792;DHT22;2922;53.482;10.006;2023-03-01T00:30:45;-1.00;99.90
5792;DHT22;2922;53.482;10.006;2023-03-01T00:33:11;-1.10;99.90
5792;DHT22;2922;53.482;10.006;2023-03-01T00:35:37;-1.10;99.90
5792;DHT22;2922;53.482;10.006;2023-03-01T00:38:03;-1.10;99.90
5792;DHT22;2922;53.482;10.006;2023-03-01T00:40:30;-1.10;99.90
5792;DHT22;2922;53.482;10.006;2023-03-01T00:42:57;-1.10;99.90
5792;DHT22;2922;53.482;10.006;2023-03-01T00:45:23;-1.20;99.90
5792;DHT22;2922;53.482;10.006;2023-03-01T00:47:50;-1.10;99.90
5792;DHT22;2922;53.482;10.006;2023-03-01T00:50:15;-1.20;99.90
5792;DHT22;2922;53.482;10.006;2023-03-01T00:52:41;-1.20;99.90
5792;DHT22;2922;53.482;10.006;2023-03-01T00:55:07;-1.20;99.90
5792;DHT22;2922;53.482;10.006;2023-03-01T00:57:33;-1.20;99.90
5792;DHT22;2922;53.482;10.006;2023-03-01T00:59:59;-1.20;99.90
5792;DHT22;2922;53.482;10.006;2023-03-01T01:02:25;-1.20;99.90
5792;DHT22;2922;53.482;10.006;2023-03-01T01:04:50;-1.20;99.90
5792;DHT22;2922;53.482;10.006;2023-03-01T01:07:16;-1.20;99.90
5792;DHT22;2922;53.482;10.006;2023-03-01T01:09:42;-1.30;99.90
5792;DHT22;2922;53.482;10.006;2023-03-01T01:12:07;-1.30;99.90
5792;DHT22;2922;53.482;10.006;2023-03-01T01:14:34;-1.30;99.90
5792;DHT22;2922;53.482;10.006;2023-03-01T01:16:59;-1.30;99.90
5792;DHT22;2922;53.482;10.006;2023-03-01T01:19:25;-1.30;99.90
5792;DHT22;2922;53.482;10.006;2023-03-01T01:21:51;-1.30;99.90
5792;DHT22;2922;53.482;10.006;2023-03-01T01:24:17;-1.40;99.90
5792;DHT22;2922;53.482;10.006;2023-03-01T01:26:43;-1.40;99.90
5792;DHT22;2922;53.482;10.006;2023-03-01T01:29:09;-1.40;99.90
5792;DHT22;2922;53.482;10.006;2023-03-01T01:31:36;-1.40;99.90
5792;DHT22;2922;53.482;10.006;2023-03-01T01:34:04;-1.40;99.90
5792;DHT22;2922;53.482;10.006;2023-03-01T01:36:31;-1.50;99.90
5792;DHT22;2922;53.482;10.006;2023-03-01T01:38:58;-1.50;99.90
5792;DHT22;2922;53.482;10.006;2023-03-01T01:41:25;-1.50;99.90
5792;DHT22;2922;53.482;10.006;2023-03-01T01:44:32;-1.50;99.90
5792;DHT22;2922;53.482;10.006;2023-03-01T01:52:03;-1.50;99.90
5792;DHT22;2922;53.482;10.006;2023-03-01T01:57:14;-1.50;99.90
5792;DHT22;2922;53.482;10.006;2023-03-01T01:59:43;-1.50;99.90
5792;DHT22;2922;53.482;10.006;2023-03-01T02:02:09;-1.60;99.90
5792;DHT22;2922;53.482;10.006;2023-03-01T02:04:34;-1.60;99.90
5792;DHT22;2922;53.482;10.006;2023-03-01T02:07:15;-1.60;99.90
5792;DHT22;2922;53.482;10.006;2023-03-01T02:09:46;-1.60;99.90
5792;DHT22;2922;53.482;10.006;2023-03-01T02:12:13;-1.60;99.90
5792;DHT22;2922;53.482;10.006;2023-03-01T02:14:39;-1.60;99.90
5792;DHT22;2922;53.482;10.006;2023-03-01T02:17:05;-1.60;99.90
5792;DHT22;2922;53.482;10.006;2023-03-01T02:25:00;-1.60;99.90
5792;DHT22;2922;53.482;10.006;2023-03-01T02:27:40;-1.50;99.90
5792;DHT22;2922;53.482;10.006;2023-03-01T02:30:11;-1.50;99.90
5792;DHT22;2922;53.482;10.006;2023-03-01T02:32:40;-1.50;99.90
5792;DHT22;2922;53.482;10.006;2023-03-01T02:35:10;-1.50;99.90
5792;DHT22;2922;53.482;10.006;2023-03-01T02:37:37;-1.50;99.90
5792;DHT22;2922;53.482;10.006;2023-03-01T02:40:09;-1.50;99.90
5792;DHT22;2922;53.482;10.006;2023-03-01T02:42:43;-1.50;99.90
5792;DHT22;2922;53.482;10.006;2023-03-01T02:45:10;-1.40;99.90
5792;DHT22;2922;53.482;10.006;2023-03-01T02:47:36;-1.40;99.90
5792;DHT22;2922;53.482;10.006;2023-03-01T02:50:02;-1.40;99.90
5792;DHT22;2922;53.482;10.006;2023-03-01T02:52:45;-1.40;99.90
5792;DHT22;2922;53.482;10.006;2023-03-01T02:55:16;-1.40;99.90
5792;DHT22;2922;53.482;10.006;2023-03-01T02:57:44;-1.40;99.90
5792;DHT22;2922;53.482;10.006;2023-03-01T03:00:19;-1.40;99.90
5792;DHT22;2922;53.482;10.006;2023-03-01T03:02:47;-1.40;99.90
5792;DHT22;2922;53.482;10.006;2023-03-01T03:05:17;-1.40;99.90
5792;DHT22;2922;53.482;10.006;2023-03-01T03:07:44;-1.40;99.90
5792;DHT22;2922;53.482;10.006;2023-03-01T03:10:31;-1.50;99.90
5792;DHT22;2922;53.482;10.006;2023-03-01T03:13:00;-1.50;99.90
5792;DHT22;2922;53.482;10.006;2023-03-01T03:15:27;-1.50;99.90
5792;DHT22;2922;53.482;10.006;2023-03-01T03:17:54;-1.50;99.90
5792;DHT22;2922;53.482;10.006;2023-03-01T03:20:23;-1.50;99.90
5792;DHT22;2922;53.482;10.006;2023-03-01T03:22:51;-1.50;99.90
5792;DHT22;2922;53.482;10.006;2023-03-01T03:25:18;-1.50;99.90
5792;DHT22;2922;53.482;10.006;2023-03-01T03:27:45;-1.50;99.90
5792;DHT22;2922;53.482;10.006;2023-03-01T03:30:14;-1.50;99.90
5792;DHT22;2922;53.482;10.006;2023-03-01T03:32:42;-1.50;99.90
5792;DHT22;2922;53.482;10.006;2023-03-01T03:35:15;-1.50;99.90
5792;DHT22;2922;53.482;10.006;2023-03-01T03:37:42;-1.50;99.90
5792;DHT22;2922;53.482;10.006;2023-03-01T03:40:27;-1.50;99.90
5792;DHT22;2922;53.482;10.006;2023-03-01T03:42:54;-1.50;99.90
5792;DHT22;2922;53.482;10.006;2023-03-01T03:45:20;-1.50;99.90
5792;DHT22;2922;53.482;10.006;2023-03-01T03:47:45;-1.50;99.90
5792;DHT22;2922;53.482;10.006;2023-03-01T03:50:12;-1.50;99.90
5792;DHT22;2922;53.482;10.006;2023-03-01T03:52:38;-1.50;99.90
5792;DHT22;2922;53.482;10.006;2023-03-01T03:55:05;-1.50;99.90
5792;DHT22;2922;53.482;10.006;2023-03-01T03:57:35;-1.50;99.90
5792;DHT22;2922;53.482;10.006;2023-03-01T04:00:00;-1.40;99.90
5792;DHT22;2922;53.482;10.006;2023-03-01T04:02:26;-1.40;99.90
5792;DHT22;2922;53.482;10.006;2023-03-01T04:04:51;-1.40;99.90
5792;DHT22;2922;53.482;10.006;2023-03-01T04:07:17;-1.30;99.90
5792;DHT22;2922;53.482;10.006;2023-03-01T04:09:43;-1.30;99.90
5792;DHT22;2922;53.482;10.006;2023-03-01T04:12:10;-1.30;99.90
5792;DHT22;2922;53.482;10.006;2023-03-01T04:14:36;-1.20;99.90
5792;DHT22;2922;53.482;10.006;2023-03-01T04:17:02;-1.20;99.90
5792;DHT22;2922;53.482;10.006;2023-03-01T04:19:31;-1.10;99.90
5792;DHT22;2922;53.482;10.006;2023-03-01T04:22:04;-1.10;99.90
5792;DHT22;2922;53.482;10.006;2023-03-01T04:24:34;-1.10;99.90
5792;DHT22;2922;53.482;10.006;2023-03-01T04:27:00;-1.00;99.90
5792;DHT22;2922;53.482;10.006;2023-03-01T04:29:26;-1.00;99.90
5792;DHT22;2922;53.482;10.006;2023-03-01T04:31:51;-0.90;99.90
5792;DHT22;2922;53.482;10.006;2023-03-01T04:34:17;-0.90;99.90
5792;DHT22;2922;53.482;10.006;2023-03-01T04:36:42;-0.80;99.90
5792;DHT22;2922;53.482;10.006;2023-03-01T04:39:08;-0.80;99.90
5792;DHT22;2922;53.482;10.006;2023-03-01T04:41:38;-0.70;99.90
5792;DHT22;2922;53.482;10.006;2023-03-01T04:44:08;-0.70;99.90
5792;DHT22;2922;53.482;10.006;2023-03-01T04:46:35;-0.70;99.90
5792;DHT22;2922;53.482;10.006;2023-03-01T04:49:01;-0.70;99.90
5792;DHT22;2922;53.482;10.006;2023-03-01T04:51:27;-0.60;99.90
5792;DHT22;2922;53.482;10.006;2023-03-01T04:53:53;-0.60;99.90
5792;DHT22;2922;53.482;10.006;2023-03-01T04:56:18;-0.60;99.90
5792;DHT22;2922;53.482;10.006;2023-03-01T04:58:44;-0.60;99.90
5792;DHT22;2922;53.482;10.006;2023-03-01T05:01:19;-0.50;99.90
5792;DHT22;2922;53.482;10.006;2023-03-01T05:03:48;-0.50;99.90
5792;DHT22;2922;53.482;10.006;2023-03-01T05:06:15;-0.50;99.90
5792;DHT22;2922;53.482;10.006;2023-03-01T05:08:41;-0.40;99.90
5792;DHT22;2922;53.482;10.006;2023-03-01T05:11:08;-0.40;99.90
5792;DHT22;2922;53.482;10.006;2023-03-01T05:13:35;-0.40;99.90
5792;DHT22;2922;53.482;10.006;2023-03-01T05:16:02;-0.40;99.90
5792;DHT22;2922;53.482;10.006;2023-03-01T05:18:30;-0.30;99.90
5792;DHT22;2922;53.482;10.006;2023-03-01T05:21:11;-0.30;99.90
5792;DHT22;2922;53.482;10.006;2023-03-01T05:23:36;-0.20;99.90
5792;DHT22;2922;53.482;10.006;2023-03-01T05:26:04;-0.20;99.90
5792;DHT22;2922;53.482;10.006;2023-03-01T05:28:31;-0.20;99.90
5792;DHT22;2922;53.482;10.006;2023-03-01T05:30:57;-0.10;99.90
5792;DHT22;2922;53.482;10.006;2023-03-01T05:33:23;-0.10;99.90
5792;DHT22;2922;53.482;10.006;2023-03-01T05:35:50;-0.10;99.90
5792;DHT22;2922;53.482;10.006;2023-03-01T05:38:16;-0.10;99.90
5792;DHT22;2922;53.482;10.006;2023-03-01T05:40:43;-0.10;99.90
5792;DHT22;2922;53.482;10.006;2023-03-01T05:43:09;-0.10;99.90
5792;DHT22;2922;53.482;10.006;2023-03-01T05:45:36;0.00;99.90
5792;DHT22;2922;53.482;10.006;2023-03-01T05:48:02;0.00;99.90
5792;DHT22;2922;53.482;10.006;2023-03-01T05:50:31;0.00;99.90
5792;DHT22;2922;53.482;10.006;2023-03-01T05:55:25;0.10;99.90
5792;DHT22;2922;53.482;10.006;2023-03-01T05:57:51;0.10;99.90
5792;DHT22;2922;53.482;10.006;2023-03-01T06:00:19;0.10;99.90
5792;DHT22;2922;53.482;10.006;2023-03-01T06:02:45;0.20;99.90
5792;DHT22;2922;53.482;10.006;2023-03-01T06:05:12;0.20;99.90
5792;DHT22;2922;53.482;10.006;2023-03-01T06:07:38;0.20;99.90
5792;DHT22;2922;53.482;10.006;2023-03-01T06:10:05;0.20;99.90
5792;DHT22;2922;53.482;10.006;2023-03-01T06:12:35;0.30;99.90
5792;DHT22;2922;53.482;10.006;2023-03-01T06:15:01;0.30;99.90
5792;DHT22;2922;53.482;10.006;2023-03-01T06:17:33;0.30;99.90
5792;DHT22;2922;53.482;10.006;2023-03-01T06:20:07;0.30;99.90
5792;DHT22;2922;53.482;10.006;2023-03-01T06:22:32;0.30;99.90
5792;DHT22;2922;53.482;10.006;2023-03-01T06:24:58;0.40;99.90
5792;DHT22;2922;53.482;10.006;2023-03-01T06:27:24;0.40;99.90
5792;DHT22;2922;53.482;10.006;2023-03-01T06:29:49;0.50;99.90
5792;DHT22;2922;53.482;10.006;2023-03-01T06:32:15;0.50;99.90
5792;DHT22;2922;53.482;10.006;2023-03-01T06:34:40;0.50;99.90
5792;DHT22;2922;53.482;10.006;2023-03-01T06:37:07;0.50;99.90
5792;DHT22;2922;53.482;10.006;2023-03-01T06:39:33;0.60;99.90
5792;DHT22;2922;53.482;10.006;2023-03-01T06:41:59;0.60;99.90
5792;DHT22;2922;53.482;10.006;2023-03-01T06:44:25;0.60;99.90
5792;DHT22;2922;53.482;10.006;2023-03-01T06:46:50;0.60;99.90
5792;DHT22;2922;53.482;10.006;2023-03-01T06:49:16;0.70;99.90
5792;DHT22;2922;53.482;10.006;2023-03-01T06:51:43;0.70;99.90
5792;DHT22;2922;53.482;10.006;2023-03-01T06:54:09;0.80;99.90
5792;DHT22;2922;53.482;10.006;2023-03-01T06:56:35;0.80;99.90
5792;DHT22;2922;53.482;10.006;2023-03-01T06:59:01;0.80;99.90
5792;DHT22;2922;53.482;10.006;2023-03-01T07:01:28;0.90;99.90
5792;DHT22;2922;53.482;10.006;2023-03-01T07:03:54;0.90;99.90
5792;DHT22;2922;53.482;10.006;2023-03-01T07:06:20;0.90;99.90
5792;DHT22;2922;53.482;10.006;2023-03-01T07:08:45;1.00;99.90
5792;DHT22;2922;53.482;10.006;2023-03-01T07:11:11;1.00;99.90
5792;DHT22;2922;53.482;10.006;2023-03-01T07:13:36;1.00;99.90
5792;DHT22;2922;53.482;10.006;2023-03-01T07:16:02;1.10;99.90
5792;DHT22;2922;53.482;10.006;2023-03-01T07:18:27;1.10;99.90
5792;DHT22;2922;53.482;10.006;2023-03-01T07:20:53;1.10;99.90
5792;DHT22;2922;53.482;10.006;2023-03-01T07:23:19;1.20;99.90
5792;DHT22;2922;53.482;10.006;2023-03-01T07:25:44;1.30;99.90
5792;DHT22;2922;53.482;10.006;2023-03-01T07:28:15;1.30;99.90
5792;DHT22;2922;53.482;10.006;2023-03-01T07:30:41;1.30;99.90
5792;DHT22;2922;53.482;10.006;2023-03-01T07:33:07;1.40;99.90
5792;DHT22;2922;53.482;10.006;2023-03-01T07:35:33;1.50;99.90
5792;DHT22;2922;53.482;10.006;2023-03-01T07:37:58;1.50;99.90
5792;DHT22;2922;53.482;10.006;2023-03-01T07:40:24;1.50;99.90
5792;DHT22;2922;53.482;10.006;2023-03-01T07:42:55;1.60;99.90
5792;DHT22;2922;53.482;10.006;2023-03-01T07:45:20;1.70;99.90
5792;DHT22;2922;53.482;10.006;2023-03-01T07:47:46;1.70;99.90
5792;DHT22;2922;53.482;10.006;2023-03-01T07:50:12;1.80;99.90
5792;DHT22;2922;53.482;10.006;2023-03-01T07:52:38;1.80;99.90
5792;DHT22;2922;53.482;10.006;2023-03-01T07:55:04;1.90;99.90
5792;DHT22;2922;53.482;10.006;2023-03-01T07:57:30;1.90;99.90
5792;DHT22;2922;53.482;10.006;2023-03-01T07:59:56;2.00;99.90
5792;DHT22;2922;53.482;10.006;2023-03-01T08:02:22;2.00;99.90
5792;DHT22;2922;53.482;10.006;2023-03-01T08:04:48;2.10;99.90
5792;DHT22;2922;53.482;10.006;2023-03-01T08:07:14;2.10;99.90
5792;DHT22;2922;53.482;10.006;2023-03-01T08:09:39;2.20;99.90
5792;DHT22;2922;53.482;10.006;2023-03-01T08:12:05;2.20;99.90
5792;DHT22;2922;53.482;10.006;2023-03-01T08:14:32;2.20;99.90
5792;DHT22;2922;53.482;10.006;2023-03-01T08:16:58;2.30;99.90
5792;DHT22;2922;53.482;10.006;2023-03-01T08:19:23;2.30;99.90
5792;DHT22;2922;53.482;10.006;2023-03-01T08:21:49;2.40;99.90
5792;DHT22;2922;53.482;10.006;2023-03-01T08:24:15;2.40;99.90
5792;DHT22;2922;53.482;10.006;2023-03-01T08:26:40;2.50;99.90
5792;DHT22;2922;53.482;10.006;2023-03-01T08:29:06;2.50;99.90
5792;DHT22;2922;53.482;10.006;2023-03-01T08:31:35;2.60;99.90
5792;DHT22;2922;53.482;10.006;2023-03-01T08:34:10;2.60;99.90
5792;DHT22;2922;53.482;10.006;2023-03-01T08:36:38;2.60;99.90
5792;DHT22;2922;53.482;10.006;2023-03-01T08:39:05;2.70;99.90
5792;DHT22;2922;53.482;10.006;2023-03-01T08:41:31;2.80;99.90
5792;DHT22;2922;53.482;10.006;2023-03-01T08:43:57;2.80;99.90
5792;DHT22;2922;53.482;10.006;2023-03-01T08:46:30;2.90;99.90
5792;DHT22;2922;53.482;10.006;2023-03-01T08:48:56;2.90;99.90
5792;DHT22;2922;53.482;10.006;2023-03-01T08:51:22;3.10;99.90
5792;DHT22;2922;53.482;10.006;2023-03-01T08:53:48;3.10;99.90
5792;DHT22;2922;53.482;10.006;2023-03-01T08:56:14;3.20;99.90
5792;DHT22;2922;53.482;10.006;2023-03-01T08:58:44;3.30;99.90
5792;DHT22;2922;53.482;10.006;2023-03-01T09:01:10;3.40;99.90
5792;DHT22;2922;53.482;10.006;2023-03-01T09:03:36;3.40;99.90
5792;DHT22;2922;53.482;10.006;2023-03-01T09:06:03;3.40;99.90
5792;DHT22;2922;53.482;10.006;2023-03-01T09:08:29;3.50;99.90
5792;DHT22;2922;53.482;10.006;2023-03-01T09:10:55;3.50;99.90
5792;DHT22;2922;53.482;10.006;2023-03-01T09:13:21;3.70;99.90
5792;DHT22;2922;53.482;10.006;2023-03-01T09:15:48;4.10;99.90
5792;DHT22;2922;53.482;10.006;2023-03-01T09:18:14;4.20;99.90
5792;DHT22;2922;53.482;10.006;2023-03-01T09:20:40;4.20;99.90
5792;DHT22;2922;53.482;10.006;2023-03-01T09:23:05;4.20;99.90
5792;DHT22;2922;53.482;10.006;2023-03-01T09:25:32;4.20;99.90
5792;DHT22;2922;53.482;10.006;2023-03-01T09:27:59;4.30;99.90
5792;DHT22;2922;53.482;10.006;2023-03-01T09:30:24;4.50;99.90
5792;DHT22;2922;53.482;10.006;2023-03-01T09:32:50;4.60;99.90
5792;DHT22;2922;53.482;10.006;2023-03-01T09:35:15;4.60;99.90
5792;DHT22;2922;53.482;10.006;2023-03-01T09:37:41;4.80;99.90
5792;DHT22;2922;53.482;10.006;2023-03-01T09:40:16;5.00;99.90
5792;DHT22;2922;53.482;10.006;2023-03-01T09:43:07;5.30;99.90
5792;DHT22;2922;53.482;10.006;2023-03-01T09:45:40;5.30;99.90
5792;DHT22;2922;53.482;10.006;2023-03-01T09:48:16;5.50;99.90
5792;DHT22;2922;53.482;10.006;2023-03-01T09:50:44;5.70;99.90
5792;DHT22;2922;53.482;10.006;2023-03-01T09:53:16;5.70;99.90
5792;DHT22;2922;53.482;10.006;2023-03-01T09:56:12;5.70;99.90
5792;DHT22;2922;53.482;10.006;2023-03-01T10:01:28;5.80;99.90
5792;DHT22;2922;53.482;10.006;2023-03-01T10:06:59;6.40;99.90
5792;DHT22;2922;53.482;10.006;2023-03-01T10:09:32;6.40;99.90
5792;DHT22;2922;53.482;10.006;2023-03-01T10:12:00;6.50;99.90
5792;DHT22;2922;53.482;10.006;2023-03-01T10:14:44;6.70;99.90
5792;DHT22;2922;53.482;10.006;2023-03-01T10:17:24;6.90;99.90
5792;DHT22;2922;53.482;10.006;2023-03-01T10:19:51;6.80;99.90
5792;DHT22;2922;53.482;10.006;2023-03-01T10:22:20;6.90;99.90
5792;DHT22;2922;53.482;10.006;2023-03-01T10:24:47;7.20;99.90
5792;DHT22;2922;53.482;10.006;2023-03-01T10:27:23;7.20;99.90
5792;DHT22;2922;53.482;10.006;2023-03-01T10:30:05;7.30;99.90
5792;DHT22;2922;53.482;10.006;2023-03-01T10:32:36;7.50;99.90
5792;DHT22;2922;53.482;10.006;2023-03-01T10:35:26;7.70;99.90
5792;DHT22;2922;53.482;10.006;2023-03-01T10:38:07;8.10;99.90
5792;DHT22;2922;53.482;10.006;2023-03-01T10:40:35;8.30;99.90
5792;DHT22;2922;53.482;10.006;2023-03-01T10:43:03;8.60;99.90
5792;DHT22;2922;53.482;10.006;2023-03-01T10:50:50;8.90;99.90
5792;DHT22;2922;53.482;10.006;2023-03-01T10:53:28;8.90;99.90
5792;DHT22;2922;53.482;10.006;2023-03-01T10:58:25;9.10;99.90
5792;DHT22;2922;53.482;10.006;2023-03-01T11:00:56;9.10;99.90
5792;DHT22;2922;53.482;10.006;2023-03-01T11:03:34;9.20;99.90
5792;DHT22;2922;53.482;10.006;2023-03-01T11:08:33;9.10;99.90
5792;DHT22;2922;53.482;10.006;2023-03-01T11:11:23;9.20;99.90
5792;DHT22;2922;53.482;10.006;2023-03-01T11:14:12;9.00;99.90
5792;DHT22;2922;53.482;10.006;2023-03-01T11:16:40;8.90;99.90
5792;DHT22;2922;53.482;10.006;2023-03-01T11:24:13;8.80;99.90
5792;DHT22;2922;53.482;10.006;2023-03-01T11:26:43;9.00;99.90
5792;DHT22;2922;53.482;10.006;2023-03-01T11:29:38;9.10;99.90
5792;DHT22;2922;53.482;10.006;2023-03-01T11:32:09;9.20;99.90
5792;DHT22;2922;53.482;10.006;2023-03-01T11:37:41;9.10;99.90
5792;DHT22;2922;53.482;10.006;2023-03-01T11:43:06;9.40;99.90
5792;DHT22;2922;53.482;10.006;2023-03-01T11:51:31;9.50;99.90
5792;DHT22;2922;53.482;10.006;2023-03-01T11:54:09;9.40;99.90
5792;DHT22;2922;53.482;10.006;2023-03-01T11:56:45;9.30;99.90
5792;DHT22;2922;53.482;10.006;2023-03-01T12:04:51;9.20;99.90
5792;DHT22;2922;53.482;10.006;2023-03-01T12:07:44;9.20;99.90
5792;DHT22;2922;53.482;10.006;2023-03-01T12:10:25;9.20;99.90
5792;DHT22;2922;53.482;10.006;2023-03-01T12:18:35;9.30;99.90
5792;DHT22;2922;53.482;10.006;2023-03-01T12:29:26;9.60;99.90
5792;DHT22;2922;53.482;10.006;2023-03-01T12:32:15;9.70;99.90
5792;DHT22;2922;53.482;10.006;2023-03-01T12:37:35;9.90;99.90
5792;DHT22;2922;53.482;10.006;2023-03-01T12:40:38;9.90;99.90
5792;DHT22;2922;53.482;10.006;2023-03-01T12:47:05;10.10;99.90
5792;DHT22;2922;53.482;10.006;2023-03-01T12:49:10;10.10;99.90
5792;DHT22;2922;53.482;10.006;2023-03-01T12:51:38;10.10;99.90
5792;DHT22;2922;53.482;10.006;2023-03-01T12:54:26;10.00;99.90
5792;DHT22;2922;53.482;10.006;2023-03-01T12:56:53;10.30;99.90
5792;DHT22;2922;53.482;10.006;2023-03-01T12:59:39;10.60;99.90
5792;DHT22;2922;53.482;10.006;2023-03-01T13:02:25;10.70;99.90
5792;DHT22;2922;53.482;10.006;2023-03-01T13:10:53;10.70;99.90
5792;DHT22;2922;53.482;10.006;2023-03-01T13:13:26;10.70;99.90
5792;DHT22;2922;53.482;10.006;2023-03-01T13:15:53;10.90;99.90
5792;DHT22;2922;53.482;10.006;2023-03-01T13:20:56;10.90;99.90
5792;DHT22;2922;53.482;10.006;2023-03-01T13:23:28;10.80;99.90
5792;DHT22;2922;53.482;10.006;2023-03-01T13:26:15;10.60;99.90
5792;DHT22;2922;53.482;10.006;2023-03-01T13:33:53;11.30;99.90
5792;DHT22;2922;53.482;10.006;2023-03-01T13:46:47;11.30;99.90
5792;DHT22;2922;53.482;10.006;2023-03-01T13:49:16;11.40;99.90
5792;DHT22;2922;53.482;10.006;2023-03-01T13:51:46;11.10;99.90
5792;DHT22;2922;53.482;10.006;2023-03-01T13:54:14;11.00;99.90
5792;DHT22;2922;53.482;10.006;2023-03-01T13:56:40;11.10;99.90
5792;DHT22;2922;53.482;10.006;2023-03-01T13:59:15;11.10;99.90
5792;DHT22;2922;53.482;10.006;2023-03-01T14:01:42;11.20;99.90
5792;DHT22;2922;53.482;10.006;2023-03-01T14:04:26;11.20;99.90
5792;DHT22;2922;53.482;10.006;2023-03-01T14:07:08;11.40;99.90
5792;DHT22;2922;53.482;10.006;2023-03-01T14:09:37;11.30;99.90
5792;DHT22;2922;53.482;10.006;2023-03-01T14:17:38;11.50;99.90
5792;DHT22;2922;53.482;10.006;2023-03-01T14:20:20;11.80;99.90
5792;DHT22;2922;53.482;10.006;2023-03-01T14:22:48;11.80;99.90
5792;DHT22;2922;53.482;10.006;2023-03-01T14:25:30;11.50;99.90
5792;DHT22;2922;53.482;10.006;2023-03-01T14:28:16;11.40;99.90
5792;DHT22;2922;53.482;10.006;2023-03-01T14:30:45;11.10;99.90
5792;DHT22;2922;53.482;10.006;2023-03-01T14:35:58;11.00;99.90
5792;DHT22;2922;53.482;10.006;2023-03-01T14:38:47;11.00;99.90
5792;DHT22;2922;53.482;10.006;2023-03-01T14:41:15;11.10;99.90
5792;DHT22;2922;53.482;10.006;2023-03-01T14:43:47;10.80;99.90
5792;DHT22;2922;53.482;10.006;2023-03-01T14:46:29;10.60;99.90
5792;DHT22;2922;53.482;10.006;2023-03-01T14:49:32;10.40;99.90
5792;DHT22;2922;53.482;10.006;2023-03-01T14:52:20;10.40;99.90
5792;DHT22;2922;53.482;10.006;2023-03-01T14:54:49;10.50;99.90
5792;DHT22;2922;53.482;10.006;2023-03-01T14:57:16;10.70;99.90
5792;DHT22;2922;53.482;10.006;2023-03-01T14:59:43;10.60;99.90
5792;DHT22;2922;53.482;10.006;2023-03-01T15:02:17;10.40;99.90
5792;DHT22;2922;53.482;10.006;2023-03-01T15:04:50;10.50;99.90
5792;DHT22;2922;53.482;10.006;2023-03-01T15:07:17;10.40;99.90
5792;DHT22;2922;53.482;10.006;2023-03-01T15:09:43;10.50;99.90
5792;DHT22;2922;53.482;10.006;2023-03-01T15:12:44;10.40;99.90
5792;DHT22;2922;53.482;10.006;2023-03-01T15:17:55;10.20;99.90
5792;DHT22;2922;53.482;10.006;2023-03-01T15:20:24;10.20;99.90
5792;DHT22;2922;53.482;10.006;2023-03-01T15:22:51;10.20;99.90
5792;DHT22;2922;53.482;10.006;2023-03-01T15:25:23;10.10;99.90
5792;DHT22;2922;53.482;10.006;2023-03-01T15:27:51;10.00;99.90
5792;DHT22;2922;53.482;10.006;2023-03-01T15:30:26;9.80;99.90
5792;DHT22;2922;53.482;10.006;2023-03-01T15:33:33;9.70;99.90
5792;DHT22;2922;53.482;10.006;2023-03-01T15:35:59;9.70;99.90
5792;DHT22;2922;53.482;10.006;2023-03-01T15:41:00;9.60;99.90
5792;DHT22;2922;53.482;10.006;2023-03-01T15:43:41;9.50;99.90
5792;DHT22;2922;53.482;10.006;2023-03-01T15:46:40;9.40;99.90
5792;DHT22;2922;53.482;10.006;2023-03-01T15:51:56;9.40;99.90
5792;DHT22;2922;53.482;10.006;2023-03-01T15:54:25;9.40;99.90
5792;DHT22;2922;53.482;10.006;2023-03-01T15:56:51;9.30;99.90
5792;DHT22;2922;53.482;10.006;2023-03-01T15:59:18;9.20;99.90
5792;DHT22;2922;53.482;10.006;2023-03-01T16:01:44;9.20;99.90
5792;DHT22;2922;53.482;10.006;2023-03-01T16:04:11;9.10;99.90
5792;DHT22;2922;53.482;10.006;2023-03-01T16:06:41;9.00;99.90
5792;DHT22;2922;53.482;10.006;2023-03-01T16:09:07;8.90;99.90
5792;DHT22;2922;53.482;10.006;2023-03-01T16:11:34;8.80;99.90
5792;DHT22;2922;53.482;10.006;2023-03-01T16:14:02;8.70;99.90
5792;DHT22;2922;53.482;10.006;2023-03-01T16:16:27;8.70;99.90
5792;DHT22;2922;53.482;10.006;2023-03-01T16:18:53;8.60;99.90
5792;DHT22;2922;53.482;10.006;2023-03-01T16:21:22;8.60;99.90
5792;DHT22;2922;53.482;10.006;2023-03-01T16:23:48;8.50;99.90
5792;DHT22;2922;53.482;10.006;2023-03-01T16:26:14;8.40;99.90
5792;DHT22;2922;53.482;10.006;2023-03-01T16:28:43;8.30;99.90
5792;DHT22;2922;53.482;10.006;2023-03-01T16:31:09;8.20;99.90
5792;DHT22;2922;53.482;10.006;2023-03-01T16:33:35;8.10;99.90
5792;DHT22;2922;53.482;10.006;2023-03-01T16:36:07;8.10;99.90
5792;DHT22;2922;53.482;10.006;2023-03-01T16:38:32;8.10;99.90
5792;DHT22;2922;53.482;10.006;2023-03-01T16:40:58;8.00;99.90
5792;DHT22;2922;53.482;10.006;2023-03-01T16:43:24;7.90;99.90
5792;DHT22;2922;53.482;10.006;2023-03-01T16:45:50;7.90;99.90
5792;DHT22;2922;53.482;10.006;2023-03-01T16:48:15;7.80;99.90
5792;DHT22;2922;53.482;10.006;2023-03-01T16:50:41;7.70;99.90
5792;DHT22;2922;53.482;10.006;2023-03-01T16:53:06;7.70;99.90
5792;DHT22;2922;53.482;10.006;2023-03-01T16:55:32;7.60;99.90
5792;DHT22;2922;53.482;10.006;2023-03-01T16:57:58;7.60;99.90
5792;DHT22;2922;53.482;10.006;2023-03-01T17:00:24;7.50;99.90
5792;DHT22;2922;53.482;10.006;2023-03-01T17:02:50;7.40;99.90
5792;DHT22;2922;53.482;10.006;2023-03-01T17:05:17;7.40;99.90
5792;DHT22;2922;53.482;10.006;2023-03-01T17:07:42;7.30;99.90
5792;DHT22;2922;53.482;10.006;2023-03-01T17:10:09;7.30;99.90
5792;DHT22;2922;53.482;10.006;2023-03-01T17:12:36;7.20;99.90
5792;DHT22;2922;53.482;10.006;2023-03-01T17:15:02;7.20;99.90
5792;DHT22;2922;53.482;10.006;2023-03-01T17:17:29;7.20;99.90
5792;DHT22;2922;53.482;10.006;2023-03-01T17:19:54;7.10;99.90
5792;DHT22;2922;53.482;10.006;2023-03-01T17:22:20;7.00;99.90
5792;DHT22;2922;53.482;10.006;2023-03-01T17:24:45;6.90;99.90
5792;DHT22;2922;53.482;10.006;2023-03-01T17:27:12;6.80;99.90
5792;DHT22;2922;53.482;10.006;2023-03-01T17:29:39;6.70;99.90
5792;DHT22;2922;53.482;10.006;2023-03-01T17:32:06;6.70;99.90
5792;DHT22;2922;53.482;10.006;2023-03-01T17:34:32;6.60;99.90
5792;DHT22;2922;53.482;10.006;2023-03-01T17:36:58;6.50;99.90
5792;DHT22;2922;53.482;10.006;2023-03-01T17:39:24;6.50;99.90
5792;DHT22;2922;53.482;10.006;2023-03-01T17:41:53;6.40;99.90
5792;DHT22;2922;53.482;10.006;2023-03-01T17:44:19;6.30;99.90
5792;DHT22;2922;53.482;10.006;2023-03-01T17:46:45;6.30;99.90
5792;DHT22;2922;53.482;10.006;2023-03-01T17:49:10;6.20;99.90
5792;DHT22;2922;53.482;10.006;2023-03-01T17:51:36;6.20;99.90
5792;DHT22;2922;53.482;10.006;2023-03-01T17:54:02;6.10;99.90
5792;DHT22;2922;53.482;10.006;2023-03-01T17:56:28;6.00;99.90
5792;DHT22;2922;53.482;10.006;2023-03-01T17:58:54;6.00;99.90
5792;DHT22;2922;53.482;10.006;2023-03-01T18:01:20;5.90;99.90
5792;DHT22;2922;53.482;10.006;2023-03-01T18:03:46;5.90;99.90